Weather at Duluth International Airport

Public forecast

Using degrees Fahrenheit for public forecast. Weather courtesy of forecast.io.

Current aviation weather report (METAR) for Duluth International Airport

Retrieved 2021/01/16 02:41 UTC (0 seconds ago):

KDLH 160241Z 35006KT 10SM SCT008 SCT012 OVC025 01/M01 A2974

Aviation forecast (TAF) for Duluth International Airport

Retrieved 2021-01-16 00:30 UTC (2 hours ago):

TAF KDLH 152328Z 1600/1624 01010KT P6SM VCSH SCT015 BKN020 FM160600 35010KT P6SM OVC009 FM161200 35007KT 5SM -SN BR OVC015 FM162100 32007KT P6SM OVC015